createdAt,value
2023-11-20T00:02:14.301Z,1.25
2023-11-20T00:04:41.388Z,1.80
2023-11-20T00:07:10.282Z,1.27
2023-11-20T00:09:37.310Z,1.17
2023-11-20T00:12:04.857Z,1.05
2023-11-20T00:14:31.716Z,1.10
2023-11-20T00:17:00.381Z,1.17
2023-11-20T00:19:28.489Z,1.13
2023-11-20T00:21:55.407Z,1.13
2023-11-20T00:24:22.274Z,1.23
2023-11-20T00:26:49.180Z,1.38
2023-11-20T00:29:17.617Z,1.00
2023-11-20T00:31:44.508Z,1.45
2023-11-20T00:34:11.467Z,0.70
2023-11-20T00:36:38.380Z,0.90
2023-11-20T00:39:05.248Z,2.00
2023-11-20T00:41:35.784Z,0.73
2023-11-20T00:44:03.720Z,0.80
2023-11-20T00:46:31.156Z,1.30
2023-11-20T00:48:58.098Z,0.77
2023-11-20T00:51:25.064Z,0.90
2023-11-20T00:53:52.177Z,0.90
2023-11-20T00:56:19.828Z,0.80
2023-11-20T00:58:46.979Z,1.27
2023-11-20T01:01:14.379Z,1.20
2023-11-20T01:03:41.608Z,0.88
2023-11-20T01:06:10.365Z,0.93
2023-11-20T01:08:37.677Z,0.73
2023-11-20T01:11:11.582Z,1.10
2023-11-20T01:13:39.159Z,1.00
2023-11-20T01:16:06.930Z,0.90
2023-11-20T01:18:34.615Z,0.77
2023-11-20T01:21:01.997Z,0.63
2023-11-20T01:23:28.864Z,0.75
2023-11-20T01:25:57.232Z,0.50
2023-11-20T01:28:24.426Z,0.70
2023-11-20T01:30:52.653Z,0.90
2023-11-20T01:33:19.821Z,0.82
2023-11-20T01:35:49.995Z,0.93
2023-11-20T01:38:17.647Z,0.60
2023-11-20T01:40:45.451Z,0.60
2023-11-20T01:43:13.340Z,0.60
2023-11-20T01:45:42.239Z,0.80
2023-11-20T01:48:09.207Z,0.90
2023-11-20T01:50:36.659Z,0.73
2023-11-20T01:53:06.184Z,0.88
2023-11-20T01:55:33.530Z,0.77
2023-11-20T01:58:01.047Z,0.70
2023-11-20T02:00:28.262Z,0.80
2023-11-20T02:02:56.045Z,0.70
2023-11-20T02:05:23.104Z,0.50
2023-11-20T02:07:51.131Z,1.15
2023-11-20T02:10:19.002Z,1.08
2023-11-20T02:12:46.013Z,0.70
2023-11-20T02:15:13.245Z,0.60
2023-11-20T02:17:40.195Z,0.50
2023-11-20T02:20:08.141Z,0.70
2023-11-20T02:22:34.955Z,0.80
2023-11-20T02:25:01.906Z,0.60
2023-11-20T02:27:47.498Z,0.57
2023-11-20T02:30:14.727Z,0.40
2023-11-20T02:32:41.791Z,0.50
2023-11-20T02:35:17.060Z,0.70
2023-11-20T02:37:45.043Z,0.52
2023-11-20T02:40:13.710Z,0.68
2023-11-20T02:42:42.464Z,0.50
2023-11-20T02:45:13.445Z,0.50
2023-11-20T02:47:40.336Z,0.40
2023-11-20T02:50:08.805Z,0.50
2023-11-20T02:52:35.982Z,0.40
2023-11-20T02:55:03.159Z,0.55
2023-11-20T02:57:30.045Z,0.82
2023-11-20T02:59:57.375Z,0.52
2023-11-20T03:02:24.371Z,1.52
2023-11-20T03:04:56.283Z,2.30
2023-11-20T03:07:23.417Z,0.47
2023-11-20T03:09:53.224Z,0.40
2023-11-20T03:12:20.128Z,0.40
2023-11-20T03:14:47.966Z,0.57
2023-11-20T03:17:16.056Z,0.47
2023-11-20T03:19:43.354Z,0.60
2023-11-20T03:22:10.217Z,0.65
2023-11-20T03:24:38.504Z,0.80
2023-11-20T03:27:05.706Z,0.57
2023-11-20T03:29:32.591Z,0.60
2023-11-20T03:32:01.203Z,0.50
2023-11-20T03:34:28.295Z,0.40
2023-11-20T03:36:55.189Z,0.70
2023-11-20T03:39:22.129Z,0.60
2023-11-20T03:41:49.030Z,0.40
2023-11-20T03:44:15.825Z,0.80
2023-11-20T03:46:42.708Z,0.55
2023-11-20T03:49:10.066Z,0.60
2023-11-20T03:51:37.072Z,0.50
2023-11-20T03:54:04.164Z,2.42
2023-11-20T03:56:31.132Z,0.60
2023-11-20T03:58:57.973Z,0.63
2023-11-20T04:01:24.973Z,0.57
2023-11-20T04:03:51.890Z,0.65
2023-11-20T04:06:18.778Z,0.47
2023-11-20T04:08:45.640Z,0.40
2023-11-20T04:11:12.435Z,0.80
2023-11-20T04:13:39.378Z,0.50
2023-11-20T04:16:09.465Z,0.70
2023-11-20T04:18:36.958Z,0.55
2023-11-20T04:21:04.958Z,0.55
2023-11-20T04:23:32.345Z,0.90
2023-11-20T04:25:59.491Z,0.80
2023-11-20T04:28:26.893Z,1.08
2023-11-20T04:30:53.777Z,0.55
2023-11-20T04:33:22.457Z,0.43
2023-11-20T04:35:49.244Z,0.60
2023-11-20T04:38:16.180Z,0.38
2023-11-20T04:40:43.170Z,0.52
2023-11-20T04:43:10.164Z,0.60
2023-11-20T04:45:37.136Z,0.40
2023-11-20T04:48:05.042Z,0.55
2023-11-20T04:50:32.147Z,0.52
2023-11-20T04:52:59.174Z,0.85
2023-11-20T04:55:26.025Z,0.95
2023-11-20T04:57:54.034Z,1.30
2023-11-20T05:00:21.182Z,0.60
2023-11-20T05:02:48.249Z,0.43
2023-11-20T05:05:16.056Z,2.28
2023-11-20T05:07:42.921Z,1.48
2023-11-20T05:10:10.242Z,0.65
2023-11-20T05:12:37.376Z,0.45
2023-11-20T05:15:04.570Z,0.60
2023-11-20T05:17:31.467Z,0.60
2023-11-20T05:19:59.384Z,0.52
2023-11-20T05:22:27.514Z,0.80
2023-11-20T05:24:54.890Z,1.00
2023-11-20T05:27:21.711Z,0.88
2023-11-20T05:29:50.023Z,0.68
2023-11-20T05:32:18.402Z,0.90
2023-11-20T05:34:45.555Z,1.80
2023-11-20T05:37:14.170Z,1.00
2023-11-20T05:39:41.549Z,1.00
2023-11-20T05:42:08.379Z,1.70
2023-11-20T05:44:35.285Z,1.20
2023-11-20T05:47:03.359Z,1.42
2023-11-20T05:49:30.252Z,1.63
2023-11-20T05:51:58.142Z,1.25
2023-11-20T05:54:27.575Z,1.20
2023-11-20T05:56:54.415Z,0.90
2023-11-20T05:59:21.673Z,1.52
2023-11-20T06:01:50.283Z,1.00
2023-11-20T06:04:17.569Z,1.23
2023-11-20T06:06:45.811Z,1.65
2023-11-20T06:09:14.131Z,1.55
2023-11-20T06:11:44.863Z,1.10
2023-11-20T06:14:12.691Z,1.55
2023-11-20T06:16:40.673Z,1.33
2023-11-20T06:19:09.336Z,1.27
2023-11-20T06:21:36.231Z,0.93
2023-11-20T06:24:03.233Z,1.38
2023-11-20T06:26:32.656Z,0.82
2023-11-20T06:28:59.519Z,1.02
2023-11-20T06:31:27.731Z,4.65
2023-11-20T06:33:54.705Z,1.25
2023-11-20T06:36:23.548Z,0.93
2023-11-20T06:38:50.649Z,1.42
2023-11-20T06:41:18.989Z,9.65
2023-11-20T06:43:47.397Z,2.40
2023-11-20T06:46:25.464Z,1.70
2023-11-20T06:48:54.877Z,0.82
2023-11-20T06:51:22.164Z,1.02
2023-11-20T06:53:49.587Z,1.30
2023-11-20T06:56:24.185Z,0.70
2023-11-20T06:58:52.776Z,0.82
2023-11-20T07:01:19.725Z,0.70
2023-11-20T07:03:47.023Z,0.73
2023-11-20T07:06:15.910Z,0.70
2023-11-20T07:08:45.423Z,0.55
2023-11-20T07:11:12.308Z,0.57
2023-11-20T07:13:40.396Z,0.68
2023-11-20T07:16:08.473Z,1.00
2023-11-20T07:18:35.707Z,0.50
2023-11-20T07:21:02.565Z,1.10
2023-11-20T07:23:29.436Z,0.50
2023-11-20T07:25:56.356Z,0.90
2023-11-20T07:28:23.326Z,0.60
2023-11-20T07:30:50.752Z,0.90
2023-11-20T07:33:17.754Z,1.15
2023-11-20T07:35:44.605Z,1.55
2023-11-20T07:38:11.656Z,1.13
2023-11-20T07:40:39.883Z,1.73
2023-11-20T07:43:06.834Z,1.58
2023-11-20T07:45:35.850Z,2.13
2023-11-20T07:48:03.138Z,1.80
2023-11-20T07:50:30.116Z,1.73
2023-11-20T07:52:57.059Z,2.10
2023-11-20T07:55:25.338Z,2.10
2023-11-20T07:57:52.409Z,1.55
2023-11-20T08:00:20.065Z,1.98
2023-11-20T08:02:47.585Z,2.35
2023-11-20T08:05:20.214Z,1.95
2023-11-20T08:07:47.600Z,2.47
2023-11-20T08:10:14.500Z,1.80
2023-11-20T08:12:41.511Z,2.20
2023-11-20T08:15:13.747Z,2.13
2023-11-20T08:17:42.154Z,2.35
2023-11-20T08:20:10.857Z,2.20
2023-11-20T08:22:38.826Z,2.47
2023-11-20T08:25:07.229Z,1.88
2023-11-20T08:27:35.020Z,2.40
2023-11-20T08:30:02.206Z,2.33
2023-11-20T08:32:30.194Z,3.15
2023-11-20T08:34:57.159Z,2.45
2023-11-20T08:37:24.908Z,1.90
2023-11-20T08:39:52.143Z,2.05
2023-11-20T08:42:19.695Z,1.67
2023-11-20T08:44:46.594Z,2.60
2023-11-20T08:47:13.503Z,1.67
2023-11-20T08:49:40.389Z,1.60
2023-11-20T08:52:10.049Z,2.03
2023-11-20T08:54:37.547Z,1.58
2023-11-20T08:57:05.133Z,1.30
2023-11-20T08:59:32.911Z,1.42
2023-11-20T09:02:00.382Z,1.55
2023-11-20T09:04:28.209Z,1.45
2023-11-20T09:06:55.301Z,1.20
2023-11-20T09:09:22.519Z,1.30
2023-11-20T09:11:50.214Z,1.30
2023-11-20T09:14:18.026Z,1.00
2023-11-20T09:16:45.298Z,1.20
2023-11-20T09:19:12.872Z,1.13
2023-11-20T09:21:40.044Z,1.30
2023-11-20T09:24:07.188Z,1.08
2023-11-20T09:26:34.065Z,0.70
2023-11-20T09:29:00.991Z,1.00
2023-11-20T09:31:29.348Z,1.00
2023-11-20T09:33:57.820Z,1.00
2023-11-20T09:36:25.732Z,1.75
2023-11-20T09:38:53.042Z,1.10
2023-11-20T09:41:22.929Z,1.10
2023-11-20T09:43:52.443Z,1.20
2023-11-20T09:46:22.113Z,0.93
2023-11-20T09:48:50.580Z,1.30
2023-11-20T09:51:25.227Z,1.30
2023-11-20T09:53:53.863Z,1.20
2023-11-20T09:56:21.412Z,1.15
2023-11-20T09:58:48.599Z,0.93
2023-11-20T10:01:18.678Z,1.02
2023-11-20T10:03:47.416Z,1.35
2023-11-20T10:06:17.981Z,1.27
2023-11-20T10:08:47.487Z,0.90
2023-11-20T10:11:19.528Z,0.90
2023-11-20T10:13:46.489Z,0.90
2023-11-20T10:16:28.033Z,1.00
2023-11-20T10:18:55.383Z,1.00
2023-11-20T10:21:22.827Z,0.93
2023-11-20T10:23:56.525Z,1.20
2023-11-20T10:26:23.997Z,0.63
2023-11-20T10:28:51.082Z,0.90
2023-11-20T10:31:19.772Z,1.02
2023-11-20T10:33:46.771Z,0.85
2023-11-20T10:36:17.800Z,0.85
2023-11-20T10:38:46.238Z,0.90
2023-11-20T10:41:13.811Z,0.90
2023-11-20T10:43:42.468Z,0.80
2023-11-20T10:46:10.278Z,0.70
2023-11-20T10:48:39.690Z,0.73
2023-11-20T10:51:11.219Z,0.90
2023-11-20T10:53:43.821Z,0.80
2023-11-20T10:56:14.050Z,0.85
2023-11-20T10:58:44.215Z,0.77
2023-11-20T11:01:11.314Z,0.70
2023-11-20T11:03:39.429Z,0.60
2023-11-20T11:06:13.558Z,0.50
2023-11-20T11:08:46.950Z,0.93
2023-11-20T11:11:16.342Z,0.60
2023-11-20T11:13:44.904Z,0.80
2023-11-20T11:16:40.593Z,0.88
2023-11-20T11:19:09.061Z,0.70
2023-11-20T11:22:02.681Z,0.60
2023-11-20T11:24:40.278Z,0.47
2023-11-20T11:27:17.113Z,0.60
2023-11-20T11:29:48.457Z,0.50
2023-11-20T11:32:31.963Z,0.65
2023-11-20T11:35:11.806Z,0.67
2023-11-20T11:37:58.414Z,0.80
2023-11-20T11:41:11.849Z,0.90
2023-11-20T11:44:07.364Z,0.65
2023-11-20T11:46:37.201Z,0.73
2023-11-20T11:49:30.908Z,0.80
2023-11-20T11:52:06.271Z,0.90
2023-11-20T11:54:33.679Z,0.80
2023-11-20T11:57:13.437Z,0.85
2023-11-20T11:59:42.778Z,0.70
2023-11-20T12:02:13.878Z,0.90
2023-11-20T12:04:53.088Z,0.70
2023-11-20T12:07:47.435Z,0.85
2023-11-20T12:10:15.131Z,1.00
2023-11-20T12:12:56.854Z,1.00
2023-11-20T12:15:44.685Z,0.60
2023-11-20T12:18:12.956Z,0.98
2023-11-20T12:20:43.535Z,0.77
2023-11-20T12:23:51.966Z,0.98
2023-11-20T12:26:19.824Z,0.80
2023-11-20T12:28:47.968Z,1.00
2023-11-20T12:31:15.149Z,0.90
2023-11-20T12:33:47.910Z,0.60
2023-11-20T12:36:16.198Z,0.73
2023-11-20T12:38:47.637Z,0.65
2023-11-20T12:41:31.992Z,0.88
2023-11-20T12:43:58.932Z,0.80
2023-11-20T12:46:29.317Z,0.75
2023-11-20T12:48:58.193Z,0.65
2023-11-20T12:51:25.729Z,0.82
2023-11-20T12:53:52.751Z,0.70
2023-11-20T12:56:19.790Z,0.80
2023-11-20T12:58:48.005Z,0.77
2023-11-20T13:01:14.989Z,1.08
2023-11-20T13:03:43.545Z,1.60
2023-11-20T13:06:12.215Z,1.05
2023-11-20T13:08:41.037Z,1.60
2023-11-20T13:11:13.186Z,1.00
2023-11-20T13:13:42.351Z,1.50
2023-11-20T13:16:18.441Z,1.30
2023-11-20T13:18:48.886Z,0.95
2023-11-20T13:21:27.476Z,0.98
2023-11-20T13:24:06.317Z,1.02
2023-11-20T13:26:33.471Z,1.15
2023-11-20T13:29:00.894Z,1.50
2023-11-20T13:31:35.702Z,1.00
2023-11-20T13:34:06.700Z,1.10
2023-11-20T13:36:35.401Z,1.27
2023-11-20T13:39:04.585Z,1.00
2023-11-20T13:41:31.438Z,1.15
2023-11-20T13:43:58.521Z,1.27
2023-11-20T13:46:26.019Z,2.22
2023-11-20T13:48:52.896Z,1.23
2023-11-20T13:51:20.103Z,1.50
2023-11-20T13:53:49.053Z,1.45
2023-11-20T13:56:15.949Z,1.38
2023-11-20T13:58:43.865Z,1.80
2023-11-20T14:01:11.865Z,1.95
2023-11-20T14:03:39.811Z,1.33
2023-11-20T14:06:07.342Z,2.22
2023-11-20T14:08:36.434Z,1.88
2023-11-20T14:11:04.481Z,2.30
2023-11-20T14:13:31.572Z,1.58
2023-11-20T14:15:59.390Z,1.55
2023-11-20T14:18:29.105Z,1.40
2023-11-20T14:20:57.313Z,2.00
2023-11-20T14:23:25.136Z,1.95
2023-11-20T14:26:13.509Z,1.73
2023-11-20T14:28:39.200Z,1.30
2023-11-20T14:31:08.254Z,1.45
2023-11-20T14:33:36.490Z,1.55
2023-11-20T14:36:05.193Z,1.40
2023-11-20T14:38:33.648Z,1.50
2023-11-20T14:41:00.555Z,1.35
2023-11-20T14:43:30.505Z,1.60
2023-11-20T14:45:57.463Z,1.33
2023-11-20T14:48:25.823Z,1.15
2023-11-20T14:50:52.731Z,1.17
2023-11-20T14:53:19.578Z,1.50
2023-11-20T14:55:46.463Z,1.88
2023-11-20T14:58:13.385Z,1.73
2023-11-20T15:00:40.585Z,1.85
2023-11-20T15:03:09.702Z,1.13
2023-11-20T15:05:39.195Z,1.58
2023-11-20T15:08:06.313Z,1.55
2023-11-20T15:10:33.267Z,1.60
2023-11-20T15:13:00.260Z,1.80
2023-11-20T15:15:30.191Z,1.77
2023-11-20T15:17:57.460Z,1.17
2023-11-20T15:20:25.640Z,1.77
2023-11-20T15:22:52.907Z,1.42
2023-11-20T15:25:21.941Z,1.40
2023-11-20T15:27:48.846Z,1.10
2023-11-20T15:30:18.260Z,1.40
2023-11-20T15:32:46.990Z,1.98
2023-11-20T15:35:14.462Z,2.00
2023-11-20T15:37:41.950Z,1.58
2023-11-20T15:40:13.588Z,1.15
2023-11-20T15:42:44.014Z,1.40
2023-11-20T15:45:12.648Z,1.15
2023-11-20T15:47:39.977Z,1.23
2023-11-20T15:50:08.531Z,1.20
2023-11-20T15:52:35.772Z,1.65
2023-11-20T15:55:03.537Z,1.27
2023-11-20T15:57:30.676Z,0.90
2023-11-20T16:00:00.332Z,1.60
2023-11-20T16:02:30.211Z,1.55
2023-11-20T16:04:58.251Z,1.10
2023-11-20T16:07:25.367Z,1.88
2023-11-20T16:09:52.474Z,1.48
2023-11-20T16:12:19.332Z,1.65
2023-11-20T16:14:48.129Z,2.00
2023-11-20T16:17:15.470Z,1.70
2023-11-20T16:19:43.846Z,1.83
2023-11-20T16:22:12.140Z,1.52
2023-11-20T16:24:39.008Z,1.77
2023-11-20T16:27:06.779Z,2.05
2023-11-20T16:29:34.178Z,2.05
2023-11-20T16:32:01.944Z,2.15
2023-11-20T16:34:29.709Z,2.60
2023-11-20T16:36:57.311Z,2.22
2023-11-20T16:39:24.480Z,2.28
2023-11-20T16:41:52.315Z,3.20
2023-11-20T16:44:22.451Z,2.70
2023-11-20T16:46:50.939Z,3.33
2023-11-20T16:49:19.455Z,2.90
2023-11-20T16:51:47.836Z,3.40
2023-11-20T16:54:14.751Z,4.07
2023-11-20T16:56:41.834Z,2.80
2023-11-20T16:59:11.603Z,2.60
2023-11-20T17:01:38.607Z,5.32
2023-11-20T17:04:07.924Z,9.27
2023-11-20T17:06:36.884Z,8.60
2023-11-20T17:09:03.904Z,8.68
2023-11-20T17:11:31.157Z,7.90
2023-11-20T17:13:58.046Z,7.60
2023-11-20T17:16:27.218Z,6.30
2023-11-20T17:18:54.246Z,5.07
2023-11-20T17:21:21.097Z,3.45
2023-11-20T17:23:47.975Z,3.20
2023-11-20T17:26:16.061Z,2.42
2023-11-20T17:28:44.447Z,2.33
2023-11-20T17:31:14.765Z,7.38
2023-11-20T17:33:43.944Z,5.57
2023-11-20T17:36:14.950Z,3.15
2023-11-20T17:38:42.342Z,10.18
2023-11-20T17:41:09.411Z,2.65
2023-11-20T17:43:38.369Z,2.38
2023-11-20T17:46:09.256Z,2.70
2023-11-20T17:48:36.190Z,2.38
2023-11-20T17:51:03.460Z,2.80
2023-11-20T17:53:31.014Z,3.13
2023-11-20T17:56:05.278Z,2.08
2023-11-20T17:58:33.221Z,2.50
2023-11-20T18:01:01.548Z,2.60
2023-11-20T18:03:28.872Z,2.28
2023-11-20T18:05:58.915Z,2.40
2023-11-20T18:08:26.098Z,2.60
2023-11-20T18:10:52.987Z,2.72
2023-11-20T18:13:21.654Z,2.47
2023-11-20T18:15:48.652Z,2.53
2023-11-20T18:18:16.960Z,2.42
2023-11-20T18:20:44.331Z,2.70
2023-11-20T18:23:11.169Z,2.90
2023-11-20T18:25:38.150Z,2.80
2023-11-20T18:28:08.220Z,2.70
2023-11-20T18:30:37.097Z,3.10
2023-11-20T18:33:05.724Z,2.72
2023-11-20T18:35:35.117Z,3.30
2023-11-20T18:38:03.316Z,2.67
2023-11-20T18:40:30.235Z,3.13
2023-11-20T18:42:57.118Z,2.65
2023-11-20T18:45:24.679Z,3.15
2023-11-20T18:47:51.668Z,3.53
2023-11-20T18:50:18.666Z,3.10
2023-11-20T18:52:46.721Z,3.10
2023-11-20T18:55:14.982Z,2.85
2023-11-20T18:57:45.590Z,2.90
2023-11-20T19:00:17.222Z,3.42
2023-11-20T19:02:45.422Z,3.95
2023-11-20T19:05:14.735Z,3.72
2023-11-20T19:07:44.390Z,4.60
2023-11-20T19:10:13.447Z,4.90
2023-11-20T19:12:45.906Z,4.28
2023-11-20T19:15:14.926Z,3.47
2023-11-20T19:17:43.935Z,4.20
2023-11-20T19:20:16.618Z,4.32
2023-11-20T19:22:43.931Z,5.70
2023-11-20T19:25:12.593Z,3.00
2023-11-20T19:27:40.609Z,3.78
2023-11-20T19:30:12.498Z,5.38
2023-11-20T19:32:40.841Z,3.58
2023-11-20T19:35:10.604Z,3.05
2023-11-20T19:37:38.477Z,3.38
2023-11-20T19:40:11.503Z,2.90
2023-11-20T19:42:38.553Z,3.37
2023-11-20T19:45:08.276Z,4.13
2023-11-20T19:47:36.332Z,3.58
2023-11-20T19:50:05.257Z,4.47
2023-11-20T19:52:32.343Z,3.80
2023-11-20T19:55:01.208Z,3.67
2023-11-20T19:57:30.084Z,3.25
2023-11-20T19:59:58.881Z,3.40
2023-11-20T20:02:26.587Z,3.90
2023-11-20T20:04:54.102Z,3.78
2023-11-20T20:07:22.517Z,3.90
2023-11-20T20:09:49.600Z,3.85
2023-11-20T20:12:17.882Z,4.30
2023-11-20T20:14:45.250Z,4.50
2023-11-20T20:17:14.988Z,4.60
2023-11-20T20:19:49.973Z,4.45
2023-11-20T20:22:18.602Z,4.82
2023-11-20T20:24:46.379Z,4.40
2023-11-20T20:27:13.716Z,5.20
2023-11-20T20:29:42.468Z,4.68
2023-11-20T20:32:09.598Z,5.03
2023-11-20T20:34:36.806Z,5.03
2023-11-20T20:37:03.972Z,4.50
2023-11-20T20:39:30.929Z,5.28
2023-11-20T20:42:01.950Z,5.45
2023-11-20T20:44:29.945Z,5.32
2023-11-20T20:46:57.074Z,4.85
2023-11-20T20:49:24.100Z,5.63
2023-11-20T20:51:50.990Z,5.15
2023-11-20T20:54:17.979Z,4.97
2023-11-20T20:56:46.104Z,5.63
2023-11-20T20:59:14.458Z,5.40
2023-11-20T21:01:41.827Z,6.22
2023-11-20T21:04:08.861Z,6.22
2023-11-20T21:06:38.709Z,5.88
2023-11-20T21:09:07.094Z,5.88
2023-11-20T21:11:35.303Z,6.32
2023-11-20T21:14:02.252Z,6.07
2023-11-20T21:16:30.475Z,5.97
2023-11-20T21:19:01.434Z,6.55
2023-11-20T21:21:30.088Z,5.65
2023-11-20T21:23:57.550Z,6.68
2023-11-20T21:26:24.501Z,6.25
2023-11-20T21:28:51.802Z,6.05
2023-11-20T21:31:19.010Z,5.72
2023-11-20T21:33:46.097Z,6.05
2023-11-20T21:36:14.891Z,5.80
2023-11-20T21:38:41.979Z,6.30
2023-11-20T21:41:09.931Z,6.30
2023-11-20T21:43:39.468Z,5.82
2023-11-20T21:46:07.014Z,5.93
2023-11-20T21:48:34.552Z,5.78
2023-11-20T21:51:01.521Z,6.32
2023-11-20T21:53:30.509Z,6.80
2023-11-20T21:55:57.856Z,6.55
2023-11-20T21:58:26.061Z,5.90
2023-11-20T22:00:54.602Z,6.10
2023-11-20T22:03:23.364Z,7.40
2023-11-20T22:05:50.302Z,6.95
2023-11-20T22:08:18.651Z,6.57
2023-11-20T22:10:45.571Z,6.38
2023-11-20T22:13:14.017Z,7.60
2023-11-20T22:15:42.433Z,7.32
2023-11-20T22:18:09.436Z,8.13
2023-11-20T22:20:36.268Z,8.95
2023-11-20T22:23:05.075Z,9.63
2023-11-20T22:25:31.974Z,9.07
2023-11-20T22:27:58.892Z,8.18
2023-11-20T22:30:25.835Z,6.95
2023-11-20T22:32:52.811Z,6.90
2023-11-20T22:35:20.636Z,8.15
2023-11-20T22:37:48.822Z,7.45
2023-11-20T22:40:17.520Z,7.80
2023-11-20T22:42:45.110Z,7.68
2023-11-20T22:45:12.458Z,7.47
2023-11-20T22:47:39.569Z,7.93
2023-11-20T22:50:08.750Z,7.38
2023-11-20T22:52:39.027Z,7.53
2023-11-20T22:55:06.784Z,8.25
2023-11-20T22:57:33.972Z,8.05
2023-11-20T23:00:01.457Z,8.38
2023-11-20T23:02:29.413Z,7.93
2023-11-20T23:04:57.069Z,8.10
2023-11-20T23:07:24.132Z,9.00
2023-11-20T23:09:51.051Z,8.30
2023-11-20T23:12:18.299Z,10.35
2023-11-20T23:14:45.559Z,10.95
2023-11-20T23:17:13.404Z,9.57
2023-11-20T23:19:40.320Z,9.93
2023-11-20T23:22:10.014Z,9.00
2023-11-20T23:24:39.353Z,9.00
2023-11-20T23:27:08.218Z,8.60
2023-11-20T23:29:36.550Z,9.32
2023-11-20T23:32:05.516Z,9.20
2023-11-20T23:34:33.524Z,7.60
2023-11-20T23:37:01.066Z,7.63
2023-11-20T23:39:27.972Z,7.80
2023-11-20T23:41:56.698Z,7.47
2023-11-20T23:44:23.987Z,7.68
2023-11-20T23:46:53.223Z,7.15
2023-11-20T23:49:20.203Z,7.97
2023-11-20T23:51:47.041Z,6.93
2023-11-20T23:54:14.044Z,7.72
2023-11-20T23:56:41.617Z,7.90
2023-11-20T23:59:08.499Z,7.93
